createdAt,value
2017-07-23T00:01:55.514Z,99.90
2017-07-23T00:04:23.786Z,99.90
2017-07-23T00:06:52.062Z,99.90
2017-07-23T00:09:20.442Z,99.90
2017-07-23T00:11:48.832Z,99.90
2017-07-23T00:14:17.213Z,99.90
2017-07-23T00:16:45.479Z,99.90
2017-07-23T00:19:13.852Z,99.90
2017-07-23T00:21:42.133Z,99.90
2017-07-23T00:24:10.525Z,99.90
2017-07-23T00:26:38.893Z,99.90
2017-07-23T00:29:07.276Z,99.90
2017-07-23T00:31:35.535Z,99.90
2017-07-23T00:34:03.816Z,99.90
2017-07-23T00:36:32.105Z,99.90
2017-07-23T00:39:00.421Z,99.90
2017-07-23T00:41:29.491Z,99.90
2017-07-23T00:43:57.855Z,99.90
2017-07-23T00:46:26.228Z,99.90
2017-07-23T00:48:54.737Z,99.90
2017-07-23T00:51:23.811Z,99.90
2017-07-23T00:53:52.106Z,99.90
2017-07-23T00:56:20.474Z,99.90
2017-07-23T00:58:48.751Z,99.90
2017-07-23T01:01:17.041Z,99.90
2017-07-23T01:03:45.425Z,99.90
2017-07-23T01:06:13.783Z,99.90
2017-07-23T01:08:42.040Z,99.90
2017-07-23T01:11:10.457Z,99.90
2017-07-23T01:13:39.496Z,99.90
2017-07-23T01:16:07.799Z,99.90
2017-07-23T01:18:36.205Z,99.90
2017-07-23T01:21:04.564Z,99.90
2017-07-23T01:23:32.939Z,99.90
2017-07-23T01:26:01.220Z,99.90
2017-07-23T01:28:29.540Z,99.90
2017-07-23T01:30:58.610Z,99.90
2017-07-23T01:33:26.979Z,99.90
2017-07-23T01:35:55.256Z,99.90
2017-07-23T01:38:23.556Z,99.90
2017-07-23T01:40:52.615Z,99.90
2017-07-23T01:43:20.917Z,99.90
2017-07-23T01:45:49.213Z,99.90
2017-07-23T01:48:18.264Z,99.90
2017-07-23T01:50:46.573Z,99.90
2017-07-23T01:53:14.933Z,99.90
2017-07-23T01:55:43.330Z,99.90
2017-07-23T01:58:11.692Z,99.90
2017-07-23T02:00:40.071Z,99.90
2017-07-23T02:03:08.357Z,99.90
2017-07-23T02:05:36.833Z,99.90
2017-07-23T02:08:05.204Z,99.90
2017-07-23T02:10:33.475Z,99.90
2017-07-23T02:13:01.885Z,99.90
2017-07-23T02:15:30.243Z,99.90
2017-07-23T02:17:58.633Z,99.90
2017-07-23T02:20:26.910Z,99.90
2017-07-23T02:22:55.273Z,99.90
2017-07-23T02:25:23.661Z,99.90
2017-07-23T02:27:51.939Z,99.90
2017-07-23T02:30:20.208Z,99.90
2017-07-23T02:32:48.598Z,99.90
2017-07-23T02:35:16.988Z,99.90
2017-07-23T02:37:45.251Z,99.90
2017-07-23T02:40:13.623Z,99.90
2017-07-23T02:42:42.019Z,99.90
2017-07-23T02:45:10.308Z,99.90
2017-07-23T02:47:39.379Z,99.90
2017-07-23T02:50:07.686Z,99.90
2017-07-23T02:52:36.714Z,99.90
2017-07-23T02:55:05.033Z,99.90
2017-07-23T02:57:33.419Z,99.90
2017-07-23T03:00:01.704Z,99.90
2017-07-23T03:02:29.977Z,99.90
2017-07-23T03:04:58.242Z,99.90
2017-07-23T03:07:26.534Z,99.90
2017-07-23T03:09:54.917Z,99.90
2017-07-23T03:12:23.983Z,99.90
2017-07-23T03:14:52.270Z,99.90
2017-07-23T03:17:20.661Z,99.90
2017-07-23T03:19:48.930Z,99.90
2017-07-23T03:22:17.305Z,99.90
2017-07-23T03:24:45.564Z,99.90
2017-07-23T03:27:13.882Z,99.90
2017-07-23T03:29:42.959Z,99.90
2017-07-23T03:32:11.252Z,99.90
2017-07-23T03:34:39.713Z,99.90
2017-07-23T03:37:07.969Z,99.90
2017-07-23T03:39:36.280Z,99.90
2017-07-23T03:42:04.655Z,99.90
2017-07-23T03:44:33.029Z,99.90
2017-07-23T03:47:01.395Z,99.90
2017-07-23T03:49:29.788Z,99.90
2017-07-23T03:51:58.065Z,99.90
2017-07-23T03:54:26.449Z,99.90
2017-07-23T03:56:54.701Z,99.90
2017-07-23T03:59:22.984Z,99.90
2017-07-23T04:01:51.377Z,99.90
2017-07-23T04:04:19.754Z,99.90
2017-07-23T04:06:48.147Z,99.90
2017-07-23T04:09:16.527Z,99.90
2017-07-23T04:11:44.893Z,99.90
2017-07-23T04:14:13.181Z,99.90
2017-07-23T04:16:41.513Z,99.90
2017-07-23T04:19:09.767Z,99.90
2017-07-23T04:21:38.087Z,99.90
2017-07-23T04:24:06.400Z,99.90
2017-07-23T04:26:35.441Z,99.90
2017-07-23T04:29:03.749Z,99.90
2017-07-23T04:31:32.020Z,99.90
2017-07-23T04:34:00.412Z,99.90
2017-07-23T04:36:28.687Z,99.90
2017-07-23T04:38:57.051Z,99.90
2017-07-23T04:41:25.330Z,99.90
2017-07-23T04:43:53.719Z,99.90
2017-07-23T04:46:22.001Z,99.90
2017-07-23T04:48:50.262Z,99.90
2017-07-23T04:51:18.658Z,99.90
2017-07-23T04:53:46.930Z,99.90
2017-07-23T04:56:15.307Z,99.90
2017-07-23T04:58:43.588Z,99.90
2017-07-23T05:01:11.872Z,99.90
2017-07-23T05:03:40.154Z,99.90
2017-07-23T05:06:08.616Z,99.90
2017-07-23T05:08:36.884Z,99.90
2017-07-23T05:11:05.293Z,99.90
2017-07-23T05:13:33.650Z,99.90
2017-07-23T05:16:01.975Z,99.90
2017-07-23T05:18:30.631Z,99.90
2017-07-23T05:20:58.897Z,99.90
2017-07-23T05:23:27.183Z,99.90
2017-07-23T05:25:55.468Z,99.90
2017-07-23T05:28:23.796Z,99.90
2017-07-23T05:30:52.109Z,99.90
2017-07-23T05:33:20.410Z,99.90
2017-07-23T05:35:48.667Z,99.90
2017-07-23T05:38:16.952Z,99.90
2017-07-23T05:40:45.216Z,99.90
2017-07-23T05:43:13.740Z,99.90
2017-07-23T05:45:42.031Z,99.90
2017-07-23T05:48:10.684Z,99.90
2017-07-23T05:50:39.756Z,99.90
2017-07-23T05:53:08.028Z,99.90
2017-07-23T05:55:36.332Z,99.90
2017-07-23T05:58:04.691Z,99.90
2017-07-23T06:00:32.968Z,99.90
2017-07-23T06:03:01.262Z,99.90
2017-07-23T06:05:29.574Z,99.90
2017-07-23T06:07:58.006Z,99.90
2017-07-23T06:10:26.276Z,99.90
2017-07-23T06:12:54.661Z,99.90
2017-07-23T06:15:22.921Z,99.90
2017-07-23T06:17:51.309Z,99.90
2017-07-23T06:20:19.607Z,99.90
2017-07-23T06:22:47.960Z,99.90
2017-07-23T06:25:16.234Z,99.90
2017-07-23T06:27:44.534Z,99.90
2017-07-23T06:30:12.826Z,99.90
2017-07-23T06:32:41.984Z,99.90
2017-07-23T06:35:10.302Z,99.90
2017-07-23T06:37:39.354Z,99.90
2017-07-23T06:40:07.666Z,99.90
2017-07-23T06:42:35.928Z,99.90
2017-07-23T06:45:04.270Z,99.90
2017-07-23T06:47:32.546Z,99.90
2017-07-23T06:50:00.848Z,99.90
2017-07-23T06:52:29.139Z,99.90
2017-07-23T06:54:57.508Z,99.90
2017-07-23T06:57:25.793Z,99.90
2017-07-23T06:59:54.112Z,99.90
2017-07-23T07:02:22.376Z,99.90
2017-07-23T07:04:51.419Z,99.90
2017-07-23T07:07:19.700Z,99.90
2017-07-23T07:09:47.964Z,99.90
2017-07-23T07:12:16.273Z,99.90
2017-07-23T07:14:44.555Z,99.90
2017-07-23T07:17:12.943Z,99.90
2017-07-23T07:19:41.199Z,99.90
2017-07-23T07:22:09.587Z,99.90
2017-07-23T07:24:37.870Z,99.90
2017-07-23T07:27:06.246Z,99.90
2017-07-23T07:29:34.621Z,99.90
2017-07-23T07:32:02.985Z,99.90
2017-07-23T07:34:31.277Z,99.90
2017-07-23T07:36:59.547Z,99.90
2017-07-23T07:39:28.013Z,99.90
2017-07-23T07:41:56.277Z,99.90
2017-07-23T07:44:24.587Z,99.90
2017-07-23T07:46:52.920Z,99.90
2017-07-23T07:49:21.242Z,99.90
2017-07-23T07:51:49.507Z,99.90
2017-07-23T07:54:17.910Z,99.90
2017-07-23T07:56:46.159Z,99.90
2017-07-23T07:59:14.555Z,99.90
2017-07-23T08:01:42.932Z,99.90
2017-07-23T08:04:11.208Z,99.90
2017-07-23T08:06:39.575Z,99.90
2017-07-23T08:09:07.868Z,99.90
2017-07-23T08:11:36.147Z,99.90
2017-07-23T08:14:04.441Z,99.90
2017-07-23T08:16:32.791Z,99.90
2017-07-23T08:19:01.079Z,99.90
2017-07-23T08:21:29.475Z,99.90
2017-07-23T08:23:57.746Z,99.90
2017-07-23T08:26:26.128Z,99.90
2017-07-23T08:28:54.502Z,99.90
2017-07-23T08:31:22.769Z,99.90
2017-07-23T08:33:51.145Z,99.90
2017-07-23T08:36:19.417Z,99.90
2017-07-23T08:38:47.793Z,99.90
2017-07-23T08:41:16.081Z,99.90
2017-07-23T08:43:44.465Z,99.90
2017-07-23T08:46:12.861Z,99.90
2017-07-23T08:48:41.120Z,99.90
2017-07-23T08:51:09.404Z,99.90
2017-07-23T08:53:37.668Z,99.90
2017-07-23T08:56:05.955Z,99.90
2017-07-23T08:58:34.236Z,99.90
2017-07-23T09:01:02.602Z,99.90
2017-07-23T09:03:31.287Z,99.90
2017-07-23T09:05:59.669Z,99.90
2017-07-23T09:08:28.052Z,99.90
2017-07-23T09:10:56.464Z,99.90
2017-07-23T09:13:25.515Z,99.90
2017-07-23T09:15:53.773Z,99.90
2017-07-23T09:18:22.081Z,99.90
2017-07-23T09:20:50.448Z,99.90
2017-07-23T09:23:18.824Z,99.90
2017-07-23T09:25:47.102Z,99.90
2017-07-23T09:28:15.492Z,99.90
2017-07-23T09:30:43.754Z,99.90
2017-07-23T09:33:12.047Z,99.90
2017-07-23T09:35:40.435Z,99.90
2017-07-23T09:38:08.816Z,99.90
2017-07-23T09:40:37.122Z,99.90
2017-07-23T09:43:05.410Z,99.90
2017-07-23T09:45:33.736Z,99.90
2017-07-23T09:48:02.005Z,99.90
2017-07-23T09:50:30.310Z,99.90
2017-07-23T09:52:59.372Z,99.90
2017-07-23T09:55:27.646Z,99.90
2017-07-23T09:57:55.967Z,99.90
2017-07-23T10:00:25.009Z,99.90
2017-07-23T10:02:54.106Z,99.90
2017-07-23T10:05:22.512Z,99.90
2017-07-23T10:07:50.883Z,99.90
2017-07-23T10:10:19.153Z,99.90
2017-07-23T10:12:47.541Z,99.90
2017-07-23T10:15:15.818Z,99.90
2017-07-23T10:17:44.138Z,99.90
2017-07-23T10:20:12.408Z,99.90
2017-07-23T10:22:40.672Z,99.90
2017-07-23T10:25:09.844Z,99.90
2017-07-23T10:27:38.108Z,99.90
2017-07-23T10:30:06.503Z,99.90
2017-07-23T10:32:34.873Z,99.90
2017-07-23T10:35:03.156Z,99.90
2017-07-23T10:37:31.483Z,99.90
2017-07-23T10:39:59.754Z,99.90
2017-07-23T10:42:28.088Z,99.90
2017-07-23T10:44:56.413Z,99.90
2017-07-23T10:47:25.463Z,99.90
2017-07-23T10:49:53.731Z,99.90
2017-07-23T10:52:22.132Z,99.90
2017-07-23T10:54:51.352Z,99.90
2017-07-23T10:57:20.584Z,99.90
2017-07-23T10:59:50.079Z,99.90
2017-07-23T11:02:20.621Z,99.90
2017-07-23T11:04:50.335Z,99.90
2017-07-23T11:07:19.229Z,99.90
2017-07-23T11:09:47.534Z,99.90
2017-07-23T11:12:16.366Z,99.90
2017-07-23T11:14:49.146Z,99.90
2017-07-23T11:17:19.108Z,99.90
2017-07-23T11:19:48.781Z,99.90
2017-07-23T11:22:19.004Z,99.90
2017-07-23T11:24:49.579Z,99.90
2017-07-23T11:27:19.501Z,99.50
2017-07-23T11:29:49.072Z,98.40
2017-07-23T11:32:17.382Z,97.30
2017-07-23T11:34:45.769Z,96.40
2017-07-23T11:37:14.961Z,97.10
2017-07-23T11:39:43.444Z,96.70
2017-07-23T11:42:15.455Z,97.40
2017-07-23T11:44:45.403Z,97.10
2017-07-23T11:47:13.703Z,96.10
2017-07-23T11:49:42.420Z,96.10
2017-07-23T11:52:10.905Z,96.10
2017-07-23T11:54:39.951Z,95.20
2017-07-23T11:57:11.752Z,95.10
2017-07-23T11:59:41.600Z,94.80
2017-07-23T12:02:11.609Z,94.90
2017-07-23T12:04:40.801Z,94.80
2017-07-23T12:07:09.327Z,95.00
2017-07-23T12:09:37.599Z,93.00
2017-07-23T12:12:05.998Z,94.50
2017-07-23T12:14:34.260Z,95.10
2017-07-23T12:17:02.549Z,94.00
2017-07-23T12:19:30.953Z,94.20
2017-07-23T12:22:00.026Z,92.60
2017-07-23T12:24:28.292Z,92.40
2017-07-23T12:26:56.693Z,92.50
2017-07-23T12:29:24.955Z,92.60
2017-07-23T12:31:53.339Z,90.10
2017-07-23T12:34:22.488Z,87.40
2017-07-23T12:36:54.988Z,85.60
2017-07-23T12:39:26.314Z,83.20
2017-07-23T12:41:55.046Z,82.70
2017-07-23T12:44:23.287Z,84.00
2017-07-23T12:46:51.589Z,78.40
2017-07-23T12:49:19.870Z,77.10
2017-07-23T12:51:50.033Z,77.70
2017-07-23T12:54:18.375Z,74.90
2017-07-23T12:56:47.441Z,62.20
2017-07-23T12:59:15.709Z,62.00
2017-07-23T13:01:44.084Z,59.50
2017-07-23T13:04:12.407Z,58.00
2017-07-23T13:06:41.474Z,61.30
2017-07-23T13:09:09.755Z,60.30
2017-07-23T13:11:38.112Z,60.40
2017-07-23T13:14:06.474Z,58.30
2017-07-23T13:16:34.725Z,57.00
2017-07-23T13:19:03.763Z,52.30
2017-07-23T13:21:32.188Z,52.10
2017-07-23T13:24:01.217Z,48.90
2017-07-23T13:26:29.499Z,48.20
2017-07-23T13:28:57.775Z,48.20
2017-07-23T13:31:26.052Z,48.30
2017-07-23T13:33:54.346Z,50.70
2017-07-23T13:36:22.613Z,50.80
2017-07-23T13:38:50.912Z,49.00
2017-07-23T13:41:19.197Z,51.80
2017-07-23T13:43:47.523Z,49.50
2017-07-23T13:46:16.536Z,46.60
2017-07-23T13:48:44.848Z,46.50
2017-07-23T13:51:13.119Z,43.90
2017-07-23T13:53:41.402Z,41.80
2017-07-23T13:56:09.688Z,43.80
2017-07-23T13:58:37.944Z,46.50
2017-07-23T14:01:06.239Z,46.40
2017-07-23T14:03:34.504Z,48.80
2017-07-23T14:06:02.873Z,50.30
2017-07-23T14:08:31.153Z,52.50
2017-07-23T14:10:59.640Z,54.80
2017-07-23T14:13:27.931Z,57.40
2017-07-23T14:15:56.198Z,59.40
2017-07-23T14:18:24.573Z,66.90
2017-07-23T14:20:52.844Z,70.90
2017-07-23T14:23:21.195Z,74.40
2017-07-23T14:25:49.513Z,77.70
2017-07-23T14:28:17.886Z,75.00
2017-07-23T14:30:46.177Z,75.50
2017-07-23T14:33:14.542Z,75.00
2017-07-23T14:35:42.819Z,75.50
2017-07-23T14:38:11.104Z,75.50
2017-07-23T14:40:39.390Z,75.70
2017-07-23T14:43:07.636Z,72.60
2017-07-23T14:45:35.925Z,65.90
2017-07-23T14:48:04.308Z,66.00
2017-07-23T14:50:32.564Z,68.10
2017-07-23T14:53:00.853Z,67.30
2017-07-23T14:55:29.139Z,66.20
2017-07-23T14:57:57.518Z,62.20
2017-07-23T15:00:25.906Z,59.70
2017-07-23T15:02:54.187Z,59.30
2017-07-23T15:05:22.492Z,59.00
2017-07-23T15:07:51.511Z,64.40
2017-07-23T15:10:19.826Z,64.30
2017-07-23T15:12:48.188Z,66.20
2017-07-23T15:15:16.478Z,67.10
2017-07-23T15:17:44.866Z,67.90
2017-07-23T15:20:13.124Z,69.60
2017-07-23T15:22:41.505Z,68.80
2017-07-23T15:25:09.794Z,71.30
2017-07-23T15:27:38.185Z,71.90
2017-07-23T15:30:06.540Z,71.90
2017-07-23T15:32:34.937Z,72.70
2017-07-23T15:35:03.198Z,76.00
2017-07-23T15:37:31.454Z,73.70
2017-07-23T15:39:59.770Z,72.20
2017-07-23T15:42:28.038Z,72.10
2017-07-23T15:44:56.419Z,72.80
2017-07-23T15:47:24.682Z,68.00
2017-07-23T15:49:52.991Z,63.30
2017-07-23T15:52:21.270Z,58.10
2017-07-23T15:54:49.644Z,53.40
2017-07-23T15:57:17.896Z,51.00
2017-07-23T15:59:46.346Z,50.50
2017-07-23T16:02:14.691Z,49.70
2017-07-23T16:04:42.966Z,47.40
2017-07-23T16:07:11.266Z,46.50
2017-07-23T16:09:39.536Z,44.80
2017-07-23T16:12:08.690Z,41.10
2017-07-23T16:14:36.981Z,41.10
2017-07-23T16:17:05.253Z,41.20
2017-07-23T16:19:33.635Z,42.10
2017-07-23T16:22:02.006Z,42.10
2017-07-23T16:24:30.274Z,44.20
2017-07-23T16:26:58.694Z,46.00
2017-07-23T16:29:27.714Z,51.80
2017-07-23T16:31:56.035Z,51.60
2017-07-23T16:34:24.285Z,51.70
2017-07-23T16:36:52.577Z,49.70
2017-07-23T16:39:21.069Z,47.60
2017-07-23T16:41:49.317Z,47.20
2017-07-23T16:44:17.593Z,48.40
2017-07-23T16:46:45.848Z,44.70
2017-07-23T16:49:14.115Z,44.50
2017-07-23T16:51:42.391Z,44.50
2017-07-23T16:54:10.688Z,44.30
2017-07-23T16:56:39.728Z,43.70
2017-07-23T16:59:08.105Z,43.80
2017-07-23T17:01:36.370Z,44.10
2017-07-23T17:04:06.528Z,44.80
2017-07-23T17:06:35.381Z,45.90
2017-07-23T17:09:04.384Z,48.20
2017-07-23T17:11:33.463Z,48.60
2017-07-23T17:14:01.769Z,49.30
2017-07-23T17:16:30.066Z,50.80
2017-07-23T17:18:59.092Z,53.00
2017-07-23T17:21:30.438Z,53.00
2017-07-23T17:24:00.309Z,52.60
2017-07-23T17:26:29.479Z,51.30
2017-07-23T17:28:57.765Z,51.20
2017-07-23T17:31:26.038Z,53.00
2017-07-23T17:33:55.348Z,54.00
2017-07-23T17:36:24.963Z,55.00
2017-07-23T17:38:54.062Z,56.70
2017-07-23T17:41:22.340Z,56.70
2017-07-23T17:43:50.700Z,57.60
2017-07-23T17:46:19.189Z,58.50
2017-07-23T17:48:47.465Z,59.40
2017-07-23T17:51:15.741Z,60.30
2017-07-23T17:53:44.117Z,59.30
2017-07-23T17:56:12.500Z,58.10
2017-07-23T17:58:40.828Z,57.10
2017-07-23T18:01:09.105Z,58.00
2017-07-23T18:03:37.444Z,58.20
2017-07-23T18:06:05.812Z,58.80
2017-07-23T18:08:34.080Z,60.30
2017-07-23T18:11:02.477Z,60.10
2017-07-23T18:13:30.747Z,61.70
2017-07-23T18:15:59.040Z,62.40
2017-07-23T18:18:27.298Z,63.90
2017-07-23T18:20:55.564Z,64.40
2017-07-23T18:23:23.874Z,64.50
2017-07-23T18:25:52.141Z,65.40
2017-07-23T18:28:20.508Z,65.30
2017-07-23T18:30:48.812Z,64.80
2017-07-23T18:33:17.881Z,70.30
2017-07-23T18:35:46.159Z,70.30
2017-07-23T18:38:14.613Z,67.00
2017-07-23T18:40:42.864Z,71.70
2017-07-23T18:43:11.219Z,72.30
2017-07-23T18:45:39.484Z,68.90
2017-07-23T18:48:07.863Z,66.90
2017-07-23T18:50:36.255Z,65.10
2017-07-23T18:53:04.714Z,64.40
2017-07-23T18:55:33.103Z,63.90
2017-07-23T18:58:01.390Z,64.50
2017-07-23T19:00:29.662Z,64.20
2017-07-23T19:02:57.922Z,67.80
2017-07-23T19:05:26.338Z,67.70
2017-07-23T19:07:55.400Z,70.00
2017-07-23T19:10:23.697Z,69.60
2017-07-23T19:12:51.971Z,70.50
2017-07-23T19:15:20.231Z,77.20
2017-07-23T19:17:48.621Z,71.70
2017-07-23T19:20:16.871Z,70.10
2017-07-23T19:22:45.155Z,68.30
2017-07-23T19:25:13.416Z,66.80
2017-07-23T19:27:41.701Z,67.20
2017-07-23T19:30:09.975Z,69.40
2017-07-23T19:32:38.264Z,68.30
2017-07-23T19:35:06.550Z,69.20
2017-07-23T19:37:34.814Z,69.80
2017-07-23T19:40:03.204Z,69.10
2017-07-23T19:42:31.581Z,72.40
2017-07-23T19:44:59.839Z,75.00
2017-07-23T19:47:28.114Z,70.80
2017-07-23T19:49:56.410Z,69.60
2017-07-23T19:52:24.654Z,71.10
2017-07-23T19:54:52.965Z,71.20
2017-07-23T19:57:21.250Z,73.60
2017-07-23T19:59:49.700Z,71.40
2017-07-23T20:02:17.949Z,70.20
2017-07-23T20:04:46.277Z,70.90
2017-07-23T20:07:14.553Z,70.30
2017-07-23T20:09:42.817Z,70.80
2017-07-23T20:12:11.094Z,70.70
2017-07-23T20:14:39.367Z,72.90
2017-07-23T20:17:07.633Z,74.00
2017-07-23T20:19:35.944Z,72.60
2017-07-23T20:22:04.245Z,76.30
2017-07-23T20:24:33.314Z,80.70
2017-07-23T20:27:01.604Z,80.60
2017-07-23T20:29:29.974Z,77.30
2017-07-23T20:31:58.242Z,82.90
2017-07-23T20:34:26.523Z,84.80
2017-07-23T20:36:54.787Z,80.00
2017-07-23T20:39:23.179Z,87.80
2017-07-23T20:41:51.646Z,89.40
2017-07-23T20:44:20.055Z,81.70
2017-07-23T20:46:48.318Z,82.00
2017-07-23T20:49:16.631Z,81.40
2017-07-23T20:51:45.631Z,81.10
2017-07-23T20:54:13.962Z,80.60
2017-07-23T20:56:42.246Z,79.20
2017-07-23T20:59:10.500Z,79.70
2017-07-23T21:01:38.790Z,80.50
2017-07-23T21:04:07.059Z,90.10
2017-07-23T21:06:35.344Z,87.70
2017-07-23T21:09:03.643Z,91.70
2017-07-23T21:11:32.006Z,91.20
2017-07-23T21:14:00.397Z,83.80
2017-07-23T21:16:28.777Z,81.90
2017-07-23T21:18:57.083Z,82.00
2017-07-23T21:21:26.240Z,81.90
2017-07-23T21:23:54.522Z,81.90
2017-07-23T21:26:22.811Z,81.10
2017-07-23T21:28:51.154Z,82.80
2017-07-23T21:31:19.394Z,88.90
2017-07-23T21:33:47.717Z,88.90
2017-07-23T21:36:16.002Z,89.90
2017-07-23T21:38:44.385Z,92.80
2017-07-23T21:41:12.686Z,91.40
2017-07-23T21:43:41.115Z,87.60
2017-07-23T21:46:09.419Z,87.30
2017-07-23T21:48:37.695Z,91.00
2017-07-23T21:51:06.098Z,91.30
2017-07-23T21:53:34.369Z,87.10
2017-07-23T21:56:02.724Z,87.60
2017-07-23T21:58:30.988Z,90.60
2017-07-23T22:00:59.309Z,88.40
2017-07-23T22:03:28.379Z,91.00
2017-07-23T22:05:56.774Z,91.00
2017-07-23T22:08:25.035Z,94.30
2017-07-23T22:10:53.436Z,93.50
2017-07-23T22:13:21.805Z,92.10
2017-07-23T22:15:50.077Z,92.50
2017-07-23T22:18:18.429Z,95.70
2017-07-23T22:20:46.741Z,96.50
2017-07-23T22:23:15.076Z,97.50
2017-07-23T22:25:43.334Z,97.70
2017-07-23T22:28:11.614Z,98.00
2017-07-23T22:30:39.923Z,97.10
2017-07-23T22:33:08.321Z,96.20
2017-07-23T22:35:36.608Z,96.30
2017-07-23T22:38:04.888Z,96.30
2017-07-23T22:40:33.152Z,96.60
2017-07-23T22:43:01.439Z,96.30
2017-07-23T22:45:29.728Z,94.90
2017-07-23T22:47:58.096Z,95.80
2017-07-23T22:50:26.669Z,95.00
2017-07-23T22:52:54.946Z,94.80
2017-07-23T22:55:23.326Z,94.20
2017-07-23T22:57:51.590Z,93.90
2017-07-23T23:00:19.888Z,93.70
2017-07-23T23:02:48.162Z,93.90
2017-07-23T23:05:16.529Z,96.10
2017-07-23T23:07:44.819Z,95.60
2017-07-23T23:10:13.200Z,92.80
2017-07-23T23:12:42.384Z,91.50
2017-07-23T23:15:10.649Z,90.80
2017-07-23T23:17:38.924Z,91.00
2017-07-23T23:20:07.185Z,90.50
2017-07-23T23:22:35.504Z,90.40
2017-07-23T23:25:03.884Z,90.90
2017-07-23T23:27:32.252Z,90.30
2017-07-23T23:30:00.517Z,91.00
2017-07-23T23:32:28.807Z,90.80
2017-07-23T23:34:57.063Z,90.90
2017-07-23T23:37:25.386Z,91.90
2017-07-23T23:39:53.643Z,91.70
2017-07-23T23:42:21.911Z,92.00
2017-07-23T23:44:50.313Z,92.10
2017-07-23T23:47:18.574Z,92.30
2017-07-23T23:49:46.950Z,92.80
2017-07-23T23:52:15.211Z,93.10
2017-07-23T23:54:43.491Z,92.80
2017-07-23T23:57:11.761Z,92.40
2017-07-23T23:59:40.040Z,92.90
